Flight Track Log - Related Links

Times and Time Zones

All times are in EDT time to prevent confusion due to time zone crossing. See the FLG3735 flight status page for this flight to view local times or setup timezone preferences in your user account.

Time Position Orientation Groundspeed Altitude Reporting Facility
EDT Latitude Longitude Course Direction KTS MPH feet Rate Location/Type
Mon 10:26:12 PM 42.2314 -83.3314 94° East 147 169 1,400  Level Cleveland Center
Mon 10:27:00 PM 42.2614 -83.3019 36° Northeast 188 216 2,700 1,541 Climbing Cleveland Center
Mon 10:28:01 PM 42.3003 -83.2333 53° Northeast 249 287 4,200 1,828 Climbing Cleveland Center
Mon 10:29:00 PM 42.3210 -82.7068 82° East  Level FlightAware Approximate
Mon 10:29:08 PM 42.3319 -83.1336 67° East 305 351 6,600  Level Cleveland Center
Mon 10:30:00 PM 42.3432 -82.5439 71° East  Level FlightAware Approximate
Mon 10:30:14 PM 42.3367 -83.0072 87° East 317 365 9,400  Level Cleveland Center
Mon 10:30:58 PM 42.3406 -82.9261 86° East 338 389 10,800 1,615 Climbing Cleveland Center
Mon 10:31:00 PM 42.3659 -82.3861 94° East  Level FlightAware Approximate
Mon 10:31:58 PM 42.3472 -82.7942 86° East 350 403 12,200  Level Cleveland Center
Mon 10:32:59 PM 42.3644 -82.6572 80° East 361 415 13,700 1,750 Climbing Cleveland Center
Mon 10:33:58 PM 42.3836 -82.5117 80° East 380 437 15,700 1,714 Climbing Cleveland Center
Mon 10:34:58 PM 42.4006 -82.3658 81° East 386 444 17,100 1,400 Climbing Cleveland Center
Mon 10:35:58 PM 42.4236 -82.2144 78° East 397 457 18,500 1,240 Climbing Cleveland Center
Mon 10:36:59 PM 42.4508 -82.0492 77° East 403 464 19,600 1,000 Climbing Cleveland Center
Mon 10:37:58 PM 42.4736 -81.8978 78° East 424 488 20,500 1,008 Climbing Cleveland Center
Mon 10:38:58 PM 42.5044 -81.7408 75° East 434 499 21,600 1,050 Climbing Cleveland Center
Mon 10:39:58 PM 42.5267 -81.5778 79° East 434 499 22,600 1,000 Climbing Cleveland Center
Mon 10:40:58 PM 42.5364 -81.4058 86° East 447 514 23,600 900 Climbing Cleveland Center
Mon 10:41:58 PM 42.5481 -81.2342 85° East 453 521 24,400 750 Climbing Cleveland Center
Mon 10:42:58 PM 42.5592 -81.0594 85° East 460 529 25,100 700 Climbing Cleveland Center
Mon 10:43:58 PM 42.5683 -80.8594 86° East 467 537 25,800 650 Climbing Cleveland Center
Mon 10:44:58 PM 42.5789 -80.6819 85° East 472 543 26,400 545 Climbing Cleveland Center
Mon 10:45:59 PM 42.5894 -80.4958 86° East 479 551 26,900 300 Climbing Cleveland Center
Mon 10:46:58 PM 42.5975 -80.3067 87° East 487 560 27,000 50 Climbing Cleveland Center
Mon 10:47:58 PM 42.6072 -80.1178 86° East 508 585 27,000  Level Cleveland Center
Mon 10:48:58 PM 42.6211 -79.9428 84° East 518 596 27,000  Level Cleveland Center
Mon 10:49:58 PM 42.6303 -79.7450 86° East 518 596 27,000  Level Cleveland Center
Mon 10:50:58 PM 42.6389 -79.5444 87° East 518 596 27,000  Level Cleveland Center
Mon 10:51:58 PM 42.6475 -79.3439 87° East 518 596 27,000  Level Cleveland Center
Mon 10:52:58 PM 42.6533 -79.1436 88° East 524 603 27,000  Level Cleveland Center
Mon 10:53:58 PM 42.6611 -78.9400 87° East 529 609 27,000  Level Cleveland Center
Mon 10:54:58 PM 42.6728 -78.7364 85° East 535 616 27,000  Level Cleveland Center
Mon 10:55:58 PM 42.6775 -78.5300 88° East 535 616 27,000  Level Cleveland Center
Mon 10:56:58 PM 42.6842 -78.3264 87° East 535 616 27,000  Level Cleveland Center
Mon 10:57:58 PM 42.6925 -78.1256 87° East 535 616 27,000  Level Cleveland Center
Mon 10:58:58 PM 42.6983 -77.9219 88° East 535 616 27,000  Level Cleveland Center
Mon 10:59:58 PM 42.7019 -77.7183 89° East 535 616 27,000  Level Cleveland Center
Mon 11:01:55 PM 42.7128 -77.3156 88° East 546 628 27,000  Level Boston Center
Mon 11:02:55 PM 42.7192 -77.1125 87° East 540 621 27,000  Level Boston Center
Mon 11:03:55 PM 42.7231 -76.9092 88° East 535 616 27,000  Level Boston Center
Mon 11:04:55 PM 42.7267 -76.7086 89° East 535 616 27,000  Level Boston Center
Mon 11:05:55 PM 42.7300 -76.5081 89° East 535 616 27,000  Level Boston Center
Mon 11:06:55 PM 42.7347 -76.3075 88° East 535 616 27,000  Level Boston Center
Mon 11:08:07 PM 42.7392 -76.1097 88° East 530 610 27,000  Level Boston Center
Mon 11:09:07 PM 42.7406 -75.8694 89° East 530 610 27,000 -400 Level Boston Center
Mon 11:10:07 PM 42.7444 -75.6689 88° East 525 604 26,200 -1,450 Descending Boston Center
Mon 11:11:07 PM 42.7433 -75.4739 90° East 525 604 24,100 -2,100 Descending Boston Center
Mon 11:12:07 PM 42.7461 -75.2872 89° East 513 590 22,000 -2,250 Descending Boston Center
Mon 11:13:07 PM 42.7461 -75.1147 90° East 484 557 19,600 -2,200 Descending Boston Center
Mon 11:14:07 PM 42.7478 -74.9536 89° East 451 519 17,600 -1,800 Descending Boston Center
Mon 11:15:07 PM 42.7483 -74.8292 90° East 428 493 16,000 -2,150 Descending Boston Center
Mon 11:16:07 PM 42.7478 -74.6456 90° East 408 470 13,300 -2,509 Descending Boston Center
Mon 11:16:57 PM 42.7586 -74.5158 83° East 399 459 11,400 -1,636 Descending Boston Center
Mon 11:17:57 PM 42.7778 -74.3806 79° East 353 406 10,300 -1,537 Descending Boston Center
Mon 11:18:58 PM 42.7964 -74.2681 77° East 295 339 8,300 -1,967 Descending Boston Center
Mon 11:19:59 PM 42.8147 -74.1553 77° East 304 350 6,300 -1,884 Descending Boston Center
Mon 11:20:59 PM 42.8331 -74.0397 78° East 303 349 4,500 -1,800 Descending Boston Center

Login

Don't have an account? Register now (free) for customized features, flight alerts, and more!